sensor_id;sensor_type;location;lat;lon;timestamp;P1;durP1;ratioP1;P2;durP2;ratioP2
13374;SDS011;6756;51.354;15.754;2024-03-08T00:00:08;40.87;;;24.40;;
13374;SDS011;6756;51.354;15.754;2024-03-08T00:04:12;43.10;;;24.93;;
13374;SDS011;6756;51.354;15.754;2024-03-08T00:08:13;43.43;;;23.53;;
13374;SDS011;6756;51.354;15.754;2024-03-08T00:12:13;45.73;;;26.37;;
13374;SDS011;6756;51.354;15.754;2024-03-08T00:16:14;47.40;;;26.70;;
13374;SDS011;6756;51.354;15.754;2024-03-08T00:20:15;48.27;;;25.83;;
13374;SDS011;6756;51.354;15.754;2024-03-08T00:24:17;44.33;;;25.37;;
13374;SDS011;6756;51.354;15.754;2024-03-08T00:28:37;46.23;;;25.10;;
13374;SDS011;6756;51.354;15.754;2024-03-08T00:32:48;38.70;;;22.43;;
13374;SDS011;6756;51.354;15.754;2024-03-08T00:36:52;37.23;;;22.43;;
13374;SDS011;6756;51.354;15.754;2024-03-08T00:40:56;35.37;;;20.53;;
13374;SDS011;6756;51.354;15.754;2024-03-08T00:44:57;36.90;;;21.00;;
13374;SDS011;6756;51.354;15.754;2024-03-08T00:48:58;35.77;;;21.70;;
13374;SDS011;6756;51.354;15.754;2024-03-08T00:53:01;37.73;;;20.87;;
13374;SDS011;6756;51.354;15.754;2024-03-08T00:57:02;45.67;;;23.43;;
13374;SDS011;6756;51.354;15.754;2024-03-08T01:01:03;51.53;;;27.17;;
13374;SDS011;6756;51.354;15.754;2024-03-08T01:05:05;51.03;;;27.80;;
13374;SDS011;6756;51.354;15.754;2024-03-08T01:09:10;57.20;;;29.83;;
13374;SDS011;6756;51.354;15.754;2024-03-08T01:13:10;49.40;;;27.60;;
13374;SDS011;6756;51.354;15.754;2024-03-08T01:17:11;51.27;;;25.63;;
13374;SDS011;6756;51.354;15.754;2024-03-08T01:21:13;44.23;;;25.33;;
13374;SDS011;6756;51.354;15.754;2024-03-08T01:25:14;37.57;;;21.77;;
13374;SDS011;6756;51.354;15.754;2024-03-08T01:29:14;36.43;;;21.10;;
13374;SDS011;6756;51.354;15.754;2024-03-08T01:33:15;33.57;;;18.63;;
13374;SDS011;6756;51.354;15.754;2024-03-08T01:37:16;35.13;;;19.40;;
13374;SDS011;6756;51.354;15.754;2024-03-08T01:41:17;35.03;;;18.87;;
13374;SDS011;6756;51.354;15.754;2024-03-08T01:45:20;40.17;;;22.20;;
13374;SDS011;6756;51.354;15.754;2024-03-08T01:49:21;42.43;;;24.30;;
13374;SDS011;6756;51.354;15.754;2024-03-08T01:53:26;47.33;;;25.83;;
13374;SDS011;6756;51.354;15.754;2024-03-08T01:57:30;44.07;;;24.03;;
13374;SDS011;6756;51.354;15.754;2024-03-08T02:01:33;41.90;;;21.97;;
13374;SDS011;6756;51.354;15.754;2024-03-08T02:05:35;48.17;;;25.90;;
13374;SDS011;6756;51.354;15.754;2024-03-08T02:09:38;52.03;;;25.93;;
13374;SDS011;6756;51.354;15.754;2024-03-08T02:13:39;47.77;;;26.47;;
13374;SDS011;6756;51.354;15.754;2024-03-08T02:17:40;51.70;;;28.20;;
13374;SDS011;6756;51.354;15.754;2024-03-08T02:21:41;58.67;;;30.27;;
13374;SDS011;6756;51.354;15.754;2024-03-08T02:25:42;59.07;;;29.60;;
13374;SDS011;6756;51.354;15.754;2024-03-08T02:29:43;54.77;;;30.60;;
13374;SDS011;6756;51.354;15.754;2024-03-08T02:33:44;47.50;;;26.23;;
13374;SDS011;6756;51.354;15.754;2024-03-08T02:37:47;50.10;;;27.73;;
13374;SDS011;6756;51.354;15.754;2024-03-08T02:41:48;48.07;;;25.60;;
13374;SDS011;6756;51.354;15.754;2024-03-08T02:45:49;48.03;;;24.27;;
13374;SDS011;6756;51.354;15.754;2024-03-08T02:49:50;47.20;;;23.57;;
13374;SDS011;6756;51.354;15.754;2024-03-08T02:53:51;43.87;;;23.43;;
13374;SDS011;6756;51.354;15.754;2024-03-08T02:57:53;42.90;;;22.97;;
13374;SDS011;6756;51.354;15.754;2024-03-08T03:01:57;44.60;;;22.80;;
13374;SDS011;6756;51.354;15.754;2024-03-08T03:05:58;42.47;;;21.97;;
13374;SDS011;6756;51.354;15.754;2024-03-08T03:09:59;45.60;;;23.10;;
13374;SDS011;6756;51.354;15.754;2024-03-08T03:14:00;53.00;;;24.63;;
13374;SDS011;6756;51.354;15.754;2024-03-08T03:18:01;48.00;;;24.90;;
13374;SDS011;6756;51.354;15.754;2024-03-08T03:22:02;48.53;;;23.33;;
13374;SDS011;6756;51.354;15.754;2024-03-08T03:26:03;53.47;;;25.60;;
13374;SDS011;6756;51.354;15.754;2024-03-08T03:30:07;43.37;;;23.37;;
13374;SDS011;6756;51.354;15.754;2024-03-08T03:34:23;37.20;;;20.50;;
13374;SDS011;6756;51.354;15.754;2024-03-08T03:38:24;34.87;;;19.63;;
13374;SDS011;6756;51.354;15.754;2024-03-08T03:42:26;38.43;;;19.77;;
13374;SDS011;6756;51.354;15.754;2024-03-08T03:46:29;50.37;;;22.67;;
13374;SDS011;6756;51.354;15.754;2024-03-08T03:50:30;42.50;;;22.20;;
13374;SDS011;6756;51.354;15.754;2024-03-08T03:54:34;46.27;;;22.90;;
13374;SDS011;6756;51.354;15.754;2024-03-08T03:58:35;46.33;;;23.87;;
13374;SDS011;6756;51.354;15.754;2024-03-08T04:02:37;44.10;;;21.70;;
13374;SDS011;6756;51.354;15.754;2024-03-08T04:06:38;103.80;;;36.67;;
13374;SDS011;6756;51.354;15.754;2024-03-08T04:10:39;54.97;;;26.13;;
13374;SDS011;6756;51.354;15.754;2024-03-08T04:14:43;44.20;;;23.17;;
13374;SDS011;6756;51.354;15.754;2024-03-08T04:18:44;41.43;;;21.87;;
13374;SDS011;6756;51.354;15.754;2024-03-08T04:22:45;41.13;;;19.73;;
13374;SDS011;6756;51.354;15.754;2024-03-08T04:26:49;45.40;;;22.50;;
13374;SDS011;6756;51.354;15.754;2024-03-08T04:30:49;51.97;;;24.47;;
13374;SDS011;6756;51.354;15.754;2024-03-08T04:34:50;50.77;;;24.10;;
13374;SDS011;6756;51.354;15.754;2024-03-08T04:38:51;40.10;;;20.50;;
13374;SDS011;6756;51.354;15.754;2024-03-08T04:42:52;34.43;;;19.00;;
13374;SDS011;6756;51.354;15.754;2024-03-08T04:46:53;36.07;;;18.90;;
13374;SDS011;6756;51.354;15.754;2024-03-08T04:50:54;43.23;;;20.40;;
13374;SDS011;6756;51.354;15.754;2024-03-08T04:54:55;38.43;;;20.60;;
13374;SDS011;6756;51.354;15.754;2024-03-08T04:58:56;42.37;;;20.87;;
13374;SDS011;6756;51.354;15.754;2024-03-08T05:02:57;47.20;;;24.10;;
13374;SDS011;6756;51.354;15.754;2024-03-08T05:06:58;54.30;;;24.30;;
13374;SDS011;6756;51.354;15.754;2024-03-08T05:11:01;49.23;;;23.60;;
13374;SDS011;6756;51.354;15.754;2024-03-08T05:15:03;38.90;;;20.73;;
13374;SDS011;6756;51.354;15.754;2024-03-08T05:19:05;37.50;;;18.10;;
13374;SDS011;6756;51.354;15.754;2024-03-08T05:23:06;31.97;;;16.87;;
13374;SDS011;6756;51.354;15.754;2024-03-08T05:27:07;37.83;;;20.87;;
13374;SDS011;6756;51.354;15.754;2024-03-08T05:31:08;73.37;;;35.47;;
13374;SDS011;6756;51.354;15.754;2024-03-08T05:35:08;92.37;;;38.00;;
13374;SDS011;6756;51.354;15.754;2024-03-08T05:39:10;97.30;;;41.37;;
13374;SDS011;6756;51.354;15.754;2024-03-08T05:43:12;60.07;;;28.97;;
13374;SDS011;6756;51.354;15.754;2024-03-08T05:47:13;58.33;;;26.33;;
13374;SDS011;6756;51.354;15.754;2024-03-08T05:51:14;56.00;;;26.97;;
13374;SDS011;6756;51.354;15.754;2024-03-08T05:55:15;72.57;;;34.07;;
13374;SDS011;6756;51.354;15.754;2024-03-08T05:59:16;73.00;;;35.83;;
13374;SDS011;6756;51.354;15.754;2024-03-08T06:03:18;73.27;;;35.70;;
13374;SDS011;6756;51.354;15.754;2024-03-08T06:07:21;72.07;;;34.27;;
13374;SDS011;6756;51.354;15.754;2024-03-08T06:11:22;58.50;;;29.03;;
13374;SDS011;6756;51.354;15.754;2024-03-08T06:15:22;52.03;;;25.77;;
13374;SDS011;6756;51.354;15.754;2024-03-08T06:19:23;53.10;;;26.13;;
13374;SDS011;6756;51.354;15.754;2024-03-08T06:23:25;61.83;;;29.23;;
13374;SDS011;6756;51.354;15.754;2024-03-08T06:27:27;53.33;;;26.90;;
13374;SDS011;6756;51.354;15.754;2024-03-08T06:31:28;65.23;;;31.90;;
13374;SDS011;6756;51.354;15.754;2024-03-08T06:35:28;74.83;;;36.87;;
13374;SDS011;6756;51.354;15.754;2024-03-08T06:39:31;74.40;;;38.33;;
13374;SDS011;6756;51.354;15.754;2024-03-08T06:43:34;116.30;;;55.30;;
13374;SDS011;6756;51.354;15.754;2024-03-08T06:47:35;127.73;;;62.43;;
13374;SDS011;6756;51.354;15.754;2024-03-08T06:51:37;110.17;;;56.30;;
13374;SDS011;6756;51.354;15.754;2024-03-08T06:55:37;125.07;;;61.97;;
13374;SDS011;6756;51.354;15.754;2024-03-08T06:59:38;145.80;;;69.47;;
13374;SDS011;6756;51.354;15.754;2024-03-08T07:03:41;158.57;;;78.90;;
13374;SDS011;6756;51.354;15.754;2024-03-08T07:07:44;142.97;;;73.10;;
13374;SDS011;6756;51.354;15.754;2024-03-08T07:11:45;118.87;;;63.50;;
13374;SDS011;6756;51.354;15.754;2024-03-08T07:15:46;82.27;;;46.40;;
13374;SDS011;6756;51.354;15.754;2024-03-08T07:19:47;62.63;;;32.93;;
13374;SDS011;6756;51.354;15.754;2024-03-08T07:23:48;60.93;;;31.80;;
13374;SDS011;6756;51.354;15.754;2024-03-08T07:28:00;71.50;;;39.13;;
13374;SDS011;6756;51.354;15.754;2024-03-08T07:32:01;58.97;;;32.20;;
13374;SDS011;6756;51.354;15.754;2024-03-08T07:36:18;60.47;;;31.40;;
13374;SDS011;6756;51.354;15.754;2024-03-08T07:40:19;55.03;;;30.70;;
13374;SDS011;6756;51.354;15.754;2024-03-08T07:44:19;58.33;;;30.83;;
13374;SDS011;6756;51.354;15.754;2024-03-08T07:48:20;61.97;;;33.07;;
13374;SDS011;6756;51.354;15.754;2024-03-08T07:52:23;58.67;;;34.03;;
13374;SDS011;6756;51.354;15.754;2024-03-08T07:56:24;56.93;;;32.93;;
13374;SDS011;6756;51.354;15.754;2024-03-08T08:00:25;54.47;;;31.80;;
13374;SDS011;6756;51.354;15.754;2024-03-08T08:04:27;51.43;;;29.27;;
13374;SDS011;6756;51.354;15.754;2024-03-08T08:08:30;52.20;;;29.43;;
13374;SDS011;6756;51.354;15.754;2024-03-08T08:12:32;48.10;;;30.47;;
13374;SDS011;6756;51.354;15.754;2024-03-08T08:16:35;47.87;;;28.67;;
13374;SDS011;6756;51.354;15.754;2024-03-08T08:20:42;50.57;;;29.33;;
13374;SDS011;6756;51.354;15.754;2024-03-08T08:24:43;45.23;;;27.47;;
13374;SDS011;6756;51.354;15.754;2024-03-08T08:28:44;39.63;;;25.60;;
13374;SDS011;6756;51.354;15.754;2024-03-08T08:32:46;45.40;;;26.47;;
13374;SDS011;6756;51.354;15.754;2024-03-08T08:36:47;38.20;;;25.13;;
13374;SDS011;6756;51.354;15.754;2024-03-08T08:40:47;39.33;;;23.57;;
13374;SDS011;6756;51.354;15.754;2024-03-08T08:44:48;36.97;;;23.13;;
13374;SDS011;6756;51.354;15.754;2024-03-08T08:48:50;35.83;;;23.23;;
13374;SDS011;6756;51.354;15.754;2024-03-08T08:52:52;34.37;;;22.67;;
13374;SDS011;6756;51.354;15.754;2024-03-08T08:56:53;36.27;;;24.23;;
13374;SDS011;6756;51.354;15.754;2024-03-08T09:00:53;39.23;;;24.73;;
13374;SDS011;6756;51.354;15.754;2024-03-08T09:04:54;37.30;;;24.33;;
13374;SDS011;6756;51.354;15.754;2024-03-08T09:08:55;37.83;;;24.17;;
13374;SDS011;6756;51.354;15.754;2024-03-08T09:12:56;38.00;;;22.90;;
13374;SDS011;6756;51.354;15.754;2024-03-08T09:16:56;35.50;;;23.90;;
13374;SDS011;6756;51.354;15.754;2024-03-08T09:20:58;39.43;;;26.63;;
13374;SDS011;6756;51.354;15.754;2024-03-08T09:24:59;37.80;;;25.70;;
13374;SDS011;6756;51.354;15.754;2024-03-08T09:29:00;37.63;;;24.97;;
13374;SDS011;6756;51.354;15.754;2024-03-08T09:33:01;37.80;;;25.63;;
13374;SDS011;6756;51.354;15.754;2024-03-08T09:37:02;34.17;;;24.27;;
13374;SDS011;6756;51.354;15.754;2024-03-08T09:41:04;33.63;;;23.30;;
13374;SDS011;6756;51.354;15.754;2024-03-08T09:45:08;33.20;;;23.53;;
13374;SDS011;6756;51.354;15.754;2024-03-08T09:49:15;35.50;;;23.87;;
13374;SDS011;6756;51.354;15.754;2024-03-08T09:53:16;37.10;;;24.97;;
13374;SDS011;6756;51.354;15.754;2024-03-08T09:57:18;40.20;;;27.27;;
13374;SDS011;6756;51.354;15.754;2024-03-08T10:01:19;37.60;;;25.77;;
13374;SDS011;6756;51.354;15.754;2024-03-08T10:05:21;32.13;;;22.87;;
13374;SDS011;6756;51.354;15.754;2024-03-08T10:09:23;31.47;;;22.97;;
13374;SDS011;6756;51.354;15.754;2024-03-08T10:13:26;34.13;;;23.07;;
13374;SDS011;6756;51.354;15.754;2024-03-08T10:17:27;34.80;;;24.83;;
13374;SDS011;6756;51.354;15.754;2024-03-08T10:21:32;36.37;;;23.77;;
13374;SDS011;6756;51.354;15.754;2024-03-08T10:25:34;35.30;;;21.67;;
13374;SDS011;6756;51.354;15.754;2024-03-08T10:29:35;49.77;;;30.23;;
13374;SDS011;6756;51.354;15.754;2024-03-08T10:33:37;42.83;;;27.63;;
13374;SDS011;6756;51.354;15.754;2024-03-08T10:37:46;33.63;;;23.20;;
13374;SDS011;6756;51.354;15.754;2024-03-08T10:42:06;37.30;;;25.03;;
13374;SDS011;6756;51.354;15.754;2024-03-08T10:46:21;31.73;;;22.10;;
13374;SDS011;6756;51.354;15.754;2024-03-08T10:50:28;32.40;;;23.30;;
13374;SDS011;6756;51.354;15.754;2024-03-08T10:54:30;31.40;;;22.03;;
13374;SDS011;6756;51.354;15.754;2024-03-08T10:58:33;36.90;;;25.27;;
13374;SDS011;6756;51.354;15.754;2024-03-08T11:02:35;34.33;;;24.20;;
13374;SDS011;6756;51.354;15.754;2024-03-08T11:10:51;37.23;;;25.40;;
13374;SDS011;6756;51.354;15.754;2024-03-08T11:14:55;32.17;;;24.30;;
13374;SDS011;6756;51.354;15.754;2024-03-08T11:23:29;34.43;;;23.83;;
13374;SDS011;6756;51.354;15.754;2024-03-08T11:27:31;36.00;;;26.73;;
13374;SDS011;6756;51.354;15.754;2024-03-08T11:31:32;37.53;;;25.83;;
13374;SDS011;6756;51.354;15.754;2024-03-08T11:35:34;32.80;;;24.33;;
13374;SDS011;6756;51.354;15.754;2024-03-08T11:39:35;39.70;;;27.23;;
13374;SDS011;6756;51.354;15.754;2024-03-08T11:43:37;37.87;;;26.70;;
13374;SDS011;6756;51.354;15.754;2024-03-08T11:47:38;35.27;;;26.63;;
13374;SDS011;6756;51.354;15.754;2024-03-08T11:51:41;39.77;;;28.93;;
13374;SDS011;6756;51.354;15.754;2024-03-08T11:55:43;36.87;;;28.13;;
13374;SDS011;6756;51.354;15.754;2024-03-08T11:59:51;35.60;;;26.20;;
13374;SDS011;6756;51.354;15.754;2024-03-08T12:03:59;42.33;;;31.30;;
13374;SDS011;6756;51.354;15.754;2024-03-08T12:08:00;38.07;;;27.67;;
13374;SDS011;6756;51.354;15.754;2024-03-08T12:12:08;38.33;;;28.17;;
13374;SDS011;6756;51.354;15.754;2024-03-08T12:16:12;33.63;;;26.33;;
13374;SDS011;6756;51.354;15.754;2024-03-08T12:20:16;35.97;;;25.27;;
13374;SDS011;6756;51.354;15.754;2024-03-08T12:24:29;35.13;;;25.57;;
13374;SDS011;6756;51.354;15.754;2024-03-08T12:28:30;32.73;;;23.93;;
13374;SDS011;6756;51.354;15.754;2024-03-08T12:32:31;31.57;;;23.83;;
13374;SDS011;6756;51.354;15.754;2024-03-08T12:36:32;31.50;;;23.57;;
13374;SDS011;6756;51.354;15.754;2024-03-08T12:40:33;34.00;;;25.23;;
13374;SDS011;6756;51.354;15.754;2024-03-08T12:44:40;34.57;;;24.73;;
13374;SDS011;6756;51.354;15.754;2024-03-08T12:48:43;32.03;;;23.30;;
13374;SDS011;6756;51.354;15.754;2024-03-08T12:52:47;35.97;;;26.37;;
13374;SDS011;6756;51.354;15.754;2024-03-08T12:56:50;32.93;;;23.60;;
13374;SDS011;6756;51.354;15.754;2024-03-08T13:00:54;36.40;;;26.47;;
13374;SDS011;6756;51.354;15.754;2024-03-08T13:04:55;33.73;;;24.20;;
13374;SDS011;6756;51.354;15.754;2024-03-08T13:08:57;34.90;;;25.63;;
13374;SDS011;6756;51.354;15.754;2024-03-08T13:12:58;35.57;;;24.67;;
13374;SDS011;6756;51.354;15.754;2024-03-08T13:16:59;40.47;;;30.50;;
13374;SDS011;6756;51.354;15.754;2024-03-08T13:21:00;30.43;;;24.20;;
13374;SDS011;6756;51.354;15.754;2024-03-08T13:25:06;42.47;;;28.20;;
13374;SDS011;6756;51.354;15.754;2024-03-08T13:29:13;44.13;;;28.30;;
13374;SDS011;6756;51.354;15.754;2024-03-08T13:33:14;39.50;;;26.10;;
13374;SDS011;6756;51.354;15.754;2024-03-08T13:37:15;28.23;;;21.37;;
13374;SDS011;6756;51.354;15.754;2024-03-08T13:41:16;32.67;;;21.60;;
13374;SDS011;6756;51.354;15.754;2024-03-08T13:45:20;29.30;;;22.00;;
13374;SDS011;6756;51.354;15.754;2024-03-08T13:49:23;27.67;;;21.30;;
13374;SDS011;6756;51.354;15.754;2024-03-08T13:53:26;26.70;;;19.77;;
13374;SDS011;6756;51.354;15.754;2024-03-08T13:57:27;24.73;;;19.07;;
13374;SDS011;6756;51.354;15.754;2024-03-08T14:01:28;25.40;;;19.23;;
13374;SDS011;6756;51.354;15.754;2024-03-08T14:05:30;28.17;;;19.70;;
13374;SDS011;6756;51.354;15.754;2024-03-08T14:09:34;32.03;;;21.23;;
13374;SDS011;6756;51.354;15.754;2024-03-08T14:13:46;27.67;;;20.00;;
13374;SDS011;6756;51.354;15.754;2024-03-08T14:17:56;29.97;;;20.43;;
13374;SDS011;6756;51.354;15.754;2024-03-08T14:21:57;27.77;;;19.90;;
13374;SDS011;6756;51.354;15.754;2024-03-08T14:25:59;28.57;;;20.27;;
13374;SDS011;6756;51.354;15.754;2024-03-08T14:30:00;27.07;;;21.00;;
13374;SDS011;6756;51.354;15.754;2024-03-08T14:34:00;27.33;;;19.90;;
13374;SDS011;6756;51.354;15.754;2024-03-08T14:38:03;30.90;;;22.17;;
13374;SDS011;6756;51.354;15.754;2024-03-08T14:42:04;29.70;;;21.63;;
13374;SDS011;6756;51.354;15.754;2024-03-08T14:46:08;28.77;;;20.90;;
13374;SDS011;6756;51.354;15.754;2024-03-08T14:50:09;31.33;;;21.33;;
13374;SDS011;6756;51.354;15.754;2024-03-08T14:54:10;29.07;;;21.53;;
13374;SDS011;6756;51.354;15.754;2024-03-08T14:58:10;30.43;;;20.40;;
13374;SDS011;6756;51.354;15.754;2024-03-08T15:02:11;29.33;;;19.80;;
13374;SDS011;6756;51.354;15.754;2024-03-08T15:06:12;31.33;;;20.10;;
13374;SDS011;6756;51.354;15.754;2024-03-08T15:10:13;26.70;;;19.27;;
13374;SDS011;6756;51.354;15.754;2024-03-08T15:14:20;26.67;;;19.80;;
13374;SDS011;6756;51.354;15.754;2024-03-08T15:18:24;26.40;;;19.17;;
13374;SDS011;6756;51.354;15.754;2024-03-08T15:22:26;26.03;;;18.97;;
13374;SDS011;6756;51.354;15.754;2024-03-08T15:26:27;28.60;;;20.67;;
13374;SDS011;6756;51.354;15.754;2024-03-08T15:30:30;27.97;;;20.40;;
13374;SDS011;6756;51.354;15.754;2024-03-08T15:34:32;31.33;;;18.87;;
13374;SDS011;6756;51.354;15.754;2024-03-08T15:38:38;30.70;;;21.50;;
13374;SDS011;6756;51.354;15.754;2024-03-08T15:42:38;27.80;;;19.37;;
13374;SDS011;6756;51.354;15.754;2024-03-08T15:46:40;30.00;;;20.43;;
13374;SDS011;6756;51.354;15.754;2024-03-08T15:50:41;29.40;;;19.80;;
13374;SDS011;6756;51.354;15.754;2024-03-08T15:54:42;30.07;;;20.23;;
13374;SDS011;6756;51.354;15.754;2024-03-08T15:58:43;29.47;;;20.20;;
13374;SDS011;6756;51.354;15.754;2024-03-08T16:02:44;28.30;;;19.23;;
13374;SDS011;6756;51.354;15.754;2024-03-08T16:06:45;27.47;;;20.33;;
13374;SDS011;6756;51.354;15.754;2024-03-08T16:10:50;28.00;;;19.80;;
13374;SDS011;6756;51.354;15.754;2024-03-08T16:14:55;35.43;;;21.97;;
13374;SDS011;6756;51.354;15.754;2024-03-08T16:18:56;33.03;;;21.70;;
13374;SDS011;6756;51.354;15.754;2024-03-08T16:22:56;33.93;;;22.00;;
13374;SDS011;6756;51.354;15.754;2024-03-08T16:26:57;30.60;;;20.17;;
13374;SDS011;6756;51.354;15.754;2024-03-08T16:30:58;31.20;;;20.63;;
13374;SDS011;6756;51.354;15.754;2024-03-08T16:34:59;31.60;;;21.47;;
13374;SDS011;6756;51.354;15.754;2024-03-08T16:39:00;46.27;;;29.77;;
13374;SDS011;6756;51.354;15.754;2024-03-08T16:43:02;32.23;;;22.43;;
13374;SDS011;6756;51.354;15.754;2024-03-08T16:47:03;32.90;;;22.27;;
13374;SDS011;6756;51.354;15.754;2024-03-08T16:51:04;34.27;;;22.13;;
13374;SDS011;6756;51.354;15.754;2024-03-08T16:55:08;32.73;;;21.77;;
13374;SDS011;6756;51.354;15.754;2024-03-08T16:59:16;35.43;;;22.50;;
13374;SDS011;6756;51.354;15.754;2024-03-08T17:03:17;33.30;;;21.33;;
13374;SDS011;6756;51.354;15.754;2024-03-08T17:07:18;34.00;;;21.20;;
13374;SDS011;6756;51.354;15.754;2024-03-08T17:11:21;33.13;;;21.33;;
13374;SDS011;6756;51.354;15.754;2024-03-08T17:15:22;35.87;;;21.97;;
13374;SDS011;6756;51.354;15.754;2024-03-08T17:19:23;30.63;;;18.47;;
13374;SDS011;6756;51.354;15.754;2024-03-08T17:23:26;25.50;;;17.47;;
13374;SDS011;6756;51.354;15.754;2024-03-08T17:27:27;34.43;;;21.40;;
13374;SDS011;6756;51.354;15.754;2024-03-08T17:31:27;40.17;;;24.87;;
13374;SDS011;6756;51.354;15.754;2024-03-08T17:35:29;46.27;;;26.83;;
13374;SDS011;6756;51.354;15.754;2024-03-08T17:39:32;45.83;;;24.37;;
13374;SDS011;6756;51.354;15.754;2024-03-08T17:43:34;75.70;;;38.07;;
13374;SDS011;6756;51.354;15.754;2024-03-08T17:47:34;102.10;;;47.60;;
13374;SDS011;6756;51.354;15.754;2024-03-08T17:51:38;128.23;;;49.60;;
13374;SDS011;6756;51.354;15.754;2024-03-08T17:55:39;91.27;;;37.80;;
13374;SDS011;6756;51.354;15.754;2024-03-08T17:59:41;61.47;;;31.60;;
13374;SDS011;6756;51.354;15.754;2024-03-08T18:03:43;53.30;;;29.93;;
13374;SDS011;6756;51.354;15.754;2024-03-08T18:07:45;43.60;;;24.83;;
13374;SDS011;6756;51.354;15.754;2024-03-08T18:11:46;46.30;;;26.20;;
13374;SDS011;6756;51.354;15.754;2024-03-08T18:15:49;45.63;;;26.53;;
13374;SDS011;6756;51.354;15.754;2024-03-08T18:19:50;54.40;;;30.43;;
13374;SDS011;6756;51.354;15.754;2024-03-08T18:23:51;75.03;;;37.03;;
13374;SDS011;6756;51.354;15.754;2024-03-08T18:27:52;67.60;;;35.07;;
13374;SDS011;6756;51.354;15.754;2024-03-08T18:31:54;53.33;;;28.83;;
13374;SDS011;6756;51.354;15.754;2024-03-08T18:35:55;37.10;;;23.83;;
13374;SDS011;6756;51.354;15.754;2024-03-08T18:39:56;34.83;;;21.57;;
13374;SDS011;6756;51.354;15.754;2024-03-08T18:43:57;32.60;;;19.53;;
13374;SDS011;6756;51.354;15.754;2024-03-08T18:47:58;29.63;;;19.87;;
13374;SDS011;6756;51.354;15.754;2024-03-08T18:51:58;37.13;;;23.33;;
13374;SDS011;6756;51.354;15.754;2024-03-08T18:55:59;46.73;;;25.63;;
13374;SDS011;6756;51.354;15.754;2024-03-08T19:00:01;49.63;;;30.23;;
13374;SDS011;6756;51.354;15.754;2024-03-08T19:04:14;45.97;;;25.93;;
13374;SDS011;6756;51.354;15.754;2024-03-08T19:08:15;39.83;;;24.47;;
13374;SDS011;6756;51.354;15.754;2024-03-08T19:12:19;38.07;;;22.60;;
13374;SDS011;6756;51.354;15.754;2024-03-08T19:16:20;40.77;;;23.67;;
13374;SDS011;6756;51.354;15.754;2024-03-08T19:20:22;43.83;;;24.30;;
13374;SDS011;6756;51.354;15.754;2024-03-08T19:24:26;43.03;;;24.77;;
13374;SDS011;6756;51.354;15.754;2024-03-08T19:28:27;44.90;;;26.17;;
13374;SDS011;6756;51.354;15.754;2024-03-08T19:32:28;44.30;;;27.17;;
13374;SDS011;6756;51.354;15.754;2024-03-08T19:36:29;43.37;;;27.47;;
13374;SDS011;6756;51.354;15.754;2024-03-08T19:40:30;55.53;;;30.97;;
13374;SDS011;6756;51.354;15.754;2024-03-08T19:44:34;50.13;;;29.27;;
13374;SDS011;6756;51.354;15.754;2024-03-08T19:48:36;52.23;;;29.53;;
13374;SDS011;6756;51.354;15.754;2024-03-08T19:52:37;95.97;;;40.20;;
13374;SDS011;6756;51.354;15.754;2024-03-08T19:56:41;51.27;;;30.13;;
13374;SDS011;6756;51.354;15.754;2024-03-08T20:00:46;58.00;;;34.47;;
13374;SDS011;6756;51.354;15.754;2024-03-08T20:04:47;53.07;;;33.37;;
13374;SDS011;6756;51.354;15.754;2024-03-08T20:08:48;63.53;;;35.93;;
13374;SDS011;6756;51.354;15.754;2024-03-08T20:12:51;59.33;;;33.37;;
13374;SDS011;6756;51.354;15.754;2024-03-08T20:16:58;76.60;;;38.70;;
13374;SDS011;6756;51.354;15.754;2024-03-08T20:20:59;70.77;;;37.30;;
13374;SDS011;6756;51.354;15.754;2024-03-08T20:25:01;57.77;;;35.03;;
13374;SDS011;6756;51.354;15.754;2024-03-08T20:29:04;69.60;;;38.00;;
13374;SDS011;6756;51.354;15.754;2024-03-08T20:33:08;63.10;;;35.73;;
13374;SDS011;6756;51.354;15.754;2024-03-08T20:37:09;60.10;;;35.40;;
13374;SDS011;6756;51.354;15.754;2024-03-08T20:41:17;56.73;;;35.17;;
13374;SDS011;6756;51.354;15.754;2024-03-08T20:45:18;53.97;;;32.20;;
13374;SDS011;6756;51.354;15.754;2024-03-08T20:49:19;66.30;;;37.23;;
13374;SDS011;6756;51.354;15.754;2024-03-08T20:53:20;66.43;;;38.67;;
13374;SDS011;6756;51.354;15.754;2024-03-08T20:57:22;58.87;;;35.07;;
13374;SDS011;6756;51.354;15.754;2024-03-08T21:01:23;60.60;;;36.67;;
13374;SDS011;6756;51.354;15.754;2024-03-08T21:05:34;59.07;;;35.03;;
13374;SDS011;6756;51.354;15.754;2024-03-08T21:09:35;62.67;;;34.83;;
13374;SDS011;6756;51.354;15.754;2024-03-08T21:13:36;61.80;;;36.67;;
13374;SDS011;6756;51.354;15.754;2024-03-08T21:17:37;64.90;;;36.40;;
13374;SDS011;6756;51.354;15.754;2024-03-08T21:21:39;61.03;;;37.40;;
13374;SDS011;6756;51.354;15.754;2024-03-08T21:25:40;66.70;;;38.67;;
13374;SDS011;6756;51.354;15.754;2024-03-08T21:29:43;65.60;;;37.23;;
13374;SDS011;6756;51.354;15.754;2024-03-08T21:33:45;60.87;;;36.30;;
13374;SDS011;6756;51.354;15.754;2024-03-08T21:37:48;61.97;;;34.73;;
13374;SDS011;6756;51.354;15.754;2024-03-08T21:41:50;64.60;;;36.20;;
13374;SDS011;6756;51.354;15.754;2024-03-08T21:45:51;63.00;;;35.70;;
13374;SDS011;6756;51.354;15.754;2024-03-08T21:49:51;69.37;;;37.13;;
13374;SDS011;6756;51.354;15.754;2024-03-08T21:53:54;61.30;;;35.40;;
13374;SDS011;6756;51.354;15.754;2024-03-08T21:57:55;71.93;;;39.10;;
13374;SDS011;6756;51.354;15.754;2024-03-08T22:01:58;63.23;;;37.03;;
13374;SDS011;6756;51.354;15.754;2024-03-08T22:06:02;68.03;;;37.57;;
13374;SDS011;6756;51.354;15.754;2024-03-08T22:10:09;64.80;;;36.60;;
13374;SDS011;6756;51.354;15.754;2024-03-08T22:14:10;62.90;;;36.43;;
13374;SDS011;6756;51.354;15.754;2024-03-08T22:18:13;67.20;;;38.40;;
13374;SDS011;6756;51.354;15.754;2024-03-08T22:22:13;69.27;;;39.10;;
13374;SDS011;6756;51.354;15.754;2024-03-08T22:26:15;67.80;;;38.87;;
13374;SDS011;6756;51.354;15.754;2024-03-08T22:30:21;67.93;;;38.90;;
13374;SDS011;6756;51.354;15.754;2024-03-08T22:34:23;68.90;;;39.47;;
13374;SDS011;6756;51.354;15.754;2024-03-08T22:38:24;72.60;;;40.33;;
13374;SDS011;6756;51.354;15.754;2024-03-08T22:42:25;73.73;;;40.20;;
13374;SDS011;6756;51.354;15.754;2024-03-08T22:46:27;74.97;;;42.57;;
13374;SDS011;6756;51.354;15.754;2024-03-08T22:50:28;72.13;;;39.60;;
13374;SDS011;6756;51.354;15.754;2024-03-08T22:54:30;72.57;;;40.50;;
13374;SDS011;6756;51.354;15.754;2024-03-08T22:58:31;76.27;;;41.13;;
13374;SDS011;6756;51.354;15.754;2024-03-08T23:02:32;73.10;;;40.50;;
13374;SDS011;6756;51.354;15.754;2024-03-08T23:06:33;77.40;;;40.90;;
13374;SDS011;6756;51.354;15.754;2024-03-08T23:10:35;73.57;;;39.80;;
13374;SDS011;6756;51.354;15.754;2024-03-08T23:14:39;80.37;;;43.60;;
13374;SDS011;6756;51.354;15.754;2024-03-08T23:18:39;75.67;;;42.87;;
13374;SDS011;6756;51.354;15.754;2024-03-08T23:22:43;78.10;;;41.93;;
13374;SDS011;6756;51.354;15.754;2024-03-08T23:26:54;74.53;;;40.83;;
13374;SDS011;6756;51.354;15.754;2024-03-08T23:30:56;81.00;;;42.37;;
13374;SDS011;6756;51.354;15.754;2024-03-08T23:34:57;76.87;;;40.37;;
13374;SDS011;6756;51.354;15.754;2024-03-08T23:38:58;81.07;;;42.00;;
13374;SDS011;6756;51.354;15.754;2024-03-08T23:43:00;81.17;;;44.17;;